Time;durP1;ratioP1;P1;durP2;ratioP2;P2;SDS_P1;SDS_P2;PMS_P1;PMS_P2;Temp;Humidity;BMP_temperature;BMP_pressure;BME280_temperature;BME280_humidity;BME280_pressure;Samples;Min_cycle;Max_cycle;Signal;HPM_P1;HPM_P2
2023/10/20 00:01:07;;;;;;;0.50;0.50;;;17.20;70.70;;;;;;5052266;28;20142;-69
2023/10/20 00:03:33;;;;;;;1.05;0.98;;;17.20;70.60;;;;;;5060060;28;20043;-69
2023/10/20 00:05:58;;;;;;;2.33;1.65;;;17.10;70.50;;;;;;5057937;28;20041;-69
2023/10/20 00:08:24;;;;;;;1.95;1.63;;;17.10;70.50;;;;;;5066808;28;20032;-69
2023/10/20 00:10:49;;;;;;;2.92;1.00;;;17.10;70.40;;;;;;5053666;28;20120;-70
2023/10/20 00:13:15;;;;;;;2.47;1.25;;;17.00;70.40;;;;;;5057225;28;20062;-69
2023/10/20 00:15:44;;;;;;;1.10;0.98;;;17.00;70.30;;;;;;5060947;28;20048;-69
2023/10/20 00:18:10;;;;;;;0.70;0.70;;;17.00;70.30;;;;;;5063339;28;20032;-70
2023/10/20 00:20:35;;;;;;;1.65;1.25;;;16.90;70.20;;;;;;5050438;28;20030;-70
2023/10/20 00:23:01;;;;;;;0.60;0.60;;;16.80;70.30;;;;;;5056829;28;20045;-70
2023/10/20 00:25:26;;;;;;;1.10;1.05;;;16.80;70.60;;;;;;5068462;28;20037;-69
2023/10/20 00:27:52;;;;;;;1.52;1.42;;;16.90;70.60;;;;;;5057935;28;20022;-70
2023/10/20 00:30:18;;;;;;;1.00;0.98;;;16.90;70.60;;;;;;5065552;28;20498;-70
2023/10/20 00:32:45;;;;;;;1.17;1.08;;;16.80;70.60;;;;;;5053714;28;20025;-71
2023/10/20 00:35:13;;;;;;;1.70;1.17;;;16.80;70.60;;;;;;5065049;28;20032;-70
2023/10/20 00:37:39;;;;;;;0.50;0.50;;;16.80;70.60;;;;;;5050244;28;20108;-70
2023/10/20 00:40:07;;;;;;;1.27;1.17;;;16.80;70.50;;;;;;5045836;28;20120;-69
2023/10/20 00:42:33;;;;;;;2.17;1.50;;;16.80;70.40;;;;;;5054457;28;20113;-70
2023/10/20 00:44:59;;;;;;;0.45;0.45;;;16.80;70.60;;;;;;5070193;28;20024;-69
2023/10/20 00:47:25;;;;;;;0.90;0.90;;;16.80;70.70;;;;;;5061642;28;20055;-69
2023/10/20 00:49:51;;;;;;;1.25;1.15;;;16.80;70.70;;;;;;5062528;28;20032;-70
2023/10/20 00:52:17;;;;;;;1.42;1.23;;;16.80;70.80;;;;;;5055272;28;20024;-71
2023/10/20 00:54:45;;;;;;;0.80;0.80;;;16.80;70.80;;;;;;5069637;28;20025;-70
2023/10/20 00:57:12;;;;;;;1.00;0.80;;;16.80;70.80;;;;;;5056608;28;20058;-70
2023/10/20 00:59:38;;;;;;;0.90;0.90;;;16.80;70.70;;;;;;5064517;28;20044;-70
2023/10/20 01:02:03;;;;;;;1.35;1.25;;;16.80;70.60;;;;;;5054148;28;20386;-70
2023/10/20 01:04:29;;;;;;;0.50;0.50;;;16.80;70.50;;;;;;5051540;28;20370;-70
2023/10/20 01:06:54;;;;;;;0.57;0.57;;;16.80;70.60;;;;;;5056929;28;20514;-70
2023/10/20 01:09:25;;;;;;;0.70;0.70;;;16.80;70.70;;;;;;5071625;28;20036;-70
2023/10/20 01:11:50;;;;;;;1.13;1.02;;;16.80;70.70;;;;;;5062064;28;20029;-70
2023/10/20 01:14:16;;;;;;;0.68;0.68;;;16.80;70.80;;;;;;5054874;28;20369;-70
2023/10/20 01:16:42;;;;;;;0.60;0.60;;;16.80;70.60;;;;;;5064571;28;20033;-70
2023/10/20 01:19:07;;;;;;;1.15;1.15;;;16.80;70.50;;;;;;5067144;28;20032;-69
2023/10/20 01:21:33;;;;;;;0.93;0.93;;;16.70;70.30;;;;;;5054342;28;20386;-70
2023/10/20 01:24:01;;;;;;;1.20;1.15;;;16.70;70.50;;;;;;5060411;28;20032;-70
2023/10/20 01:26:29;;;;;;;1.48;1.38;;;16.60;70.40;;;;;;5045274;28;20029;-70
2023/10/20 01:28:55;;;;;;;1.77;1.60;;;16.60;70.20;;;;;;5055575;28;20472;-70
2023/10/20 01:31:20;;;;;;;1.55;1.45;;;16.60;70.30;;;;;;5065099;28;20109;-70
2023/10/20 01:33:46;;;;;;;1.38;1.27;;;16.60;70.40;;;;;;5064185;28;20025;-70
2023/10/20 01:36:11;;;;;;;25.25;1.90;;;16.60;70.40;;;;;;5057727;28;20036;-69
2023/10/20 01:38:37;;;;;;;0.50;0.50;;;16.60;70.40;;;;;;5043333;28;20033;-69
2023/10/20 01:41:02;;;;;;;1.02;0.93;;;16.60;70.40;;;;;;5068374;28;20469;-69
2023/10/20 01:43:28;;;;;;;0.95;0.80;;;16.60;70.30;;;;;;5061646;28;20464;-70
2023/10/20 01:45:54;;;;;;;0.90;0.90;;;16.60;70.40;;;;;;5058689;28;20443;-70
2023/10/20 01:48:20;;;;;;;1.00;1.00;;;16.50;70.30;;;;;;5060837;28;20048;-70
2023/10/20 01:50:45;;;;;;;0.95;0.95;;;16.50;70.30;;;;;;5068539;28;20029;-70
2023/10/20 01:53:11;;;;;;;2.08;1.58;;;16.50;70.20;;;;;;5052001;28;20032;-69
2023/10/20 01:55:39;;;;;;;1.00;1.00;;;16.50;70.30;;;;;;5063727;28;20491;-69
2023/10/20 01:58:05;;;;;;;1.02;1.02;;;16.50;70.30;;;;;;5056122;28;20033;-70
2023/10/20 02:00:31;;;;;;;1.77;1.27;;;16.50;70.30;;;;;;5069450;28;20032;-70
2023/10/20 02:02:57;;;;;;;1.23;1.13;;;16.50;70.30;;;;;;5056715;28;20024;-69
2023/10/20 02:05:25;;;;;;;1.60;1.48;;;16.50;70.30;;;;;;5063407;28;20155;-69
2023/10/20 02:07:50;;;;;;;0.82;0.82;;;16.50;70.10;;;;;;5063654;28;20499;-69
2023/10/20 02:10:16;;;;;;;1.40;1.30;;;16.40;70.20;;;;;;5057984;28;20029;-69
2023/10/20 02:12:41;;;;;;;1.70;1.58;;;16.40;70.00;;;;;;5055374;28;20037;-70
2023/10/20 02:15:07;;;;;;;2.95;1.67;;;16.40;70.00;;;;;;5067370;28;20021;-70
2023/10/20 02:17:34;;;;;;;1.52;1.42;;;16.30;69.90;;;;;;5061283;28;20480;-69
2023/10/20 02:20:00;;;;;;;0.90;0.90;;;16.30;69.90;;;;;;5059558;28;20040;-70
2023/10/20 02:22:26;;;;;;;5.63;3.15;;;16.30;69.80;;;;;;5055131;28;20033;-70
2023/10/20 02:24:52;;;;;;;0.70;0.70;;;16.20;69.80;;;;;;5067481;28;20043;-70
2023/10/20 02:27:18;;;;;;;0.90;0.90;;;16.20;69.90;;;;;;5058780;28;20028;-69
2023/10/20 02:29:44;;;;;;;2.20;2.00;;;16.20;69.70;;;;;;5061895;28;20025;-70
2023/10/20 02:32:12;;;;;;;1.13;1.13;;;16.20;69.80;;;;;;5051313;28;20025;-70
2023/10/20 02:34:37;;;;;;;0.82;0.82;;;16.10;69.60;;;;;;5068065;28;20112;-70
2023/10/20 02:37:03;;;;;;;1.50;1.40;;;16.10;69.50;;;;;;5047492;28;20103;-71
2023/10/20 02:39:28;;;;;;;1.58;1.38;;;16.00;69.90;;;;;;5049277;28;20033;-70
2023/10/20 02:41:54;;;;;;;0.70;0.70;;;16.00;69.60;;;;;;5051168;28;20041;-70
2023/10/20 02:44:21;;;;;;;2.17;1.60;;;16.00;69.70;;;;;;5058821;28;20114;-70
2023/10/20 02:46:46;;;;;;;1.42;1.33;;;16.00;69.60;;;;;;5038448;28;20136;-69
2023/10/20 02:49:12;;;;;;;1.73;1.58;;;16.00;69.60;;;;;;5050648;28;20111;-70
2023/10/20 02:51:37;;;;;;;2.30;2.10;;;15.90;69.80;;;;;;5054477;28;20100;-70
2023/10/20 02:54:03;;;;;;;0.98;0.98;;;15.90;69.90;;;;;;5058893;28;20032;-70
2023/10/20 02:56:29;;;;;;;2.00;1.88;;;15.90;69.80;;;;;;5062534;28;20033;-70
2023/10/20 02:58:55;;;;;;;1.25;1.20;;;15.90;69.80;;;;;;5052565;28;20032;-70
2023/10/20 03:01:21;;;;;;;0.80;0.80;;;15.80;69.80;;;;;;5064178;28;20354;-70
2023/10/20 03:03:47;;;;;;;1.23;1.15;;;15.80;69.50;;;;;;5060964;28;20442;-70
2023/10/20 03:06:12;;;;;;;1.52;1.42;;;15.80;69.60;;;;;;5055028;28;20029;-70
2023/10/20 03:08:39;;;;;;;1.33;1.25;;;15.70;69.80;;;;;;5068555;28;20483;-71
2023/10/20 03:11:06;;;;;;;0.80;0.80;;;15.70;69.80;;;;;;5054184;28;20024;-74
2023/10/20 03:13:32;;;;;;;1.08;1.02;;;15.70;69.90;;;;;;5052593;28;20024;-75
2023/10/20 03:15:57;;;;;;;0.65;0.65;;;15.60;70.00;;;;;;5046974;28;20028;-75
2023/10/20 03:18:23;;;;;;;0.93;0.93;;;15.60;70.00;;;;;;5067515;28;20508;-75
2023/10/20 03:20:50;;;;;;;2.15;1.75;;;15.50;70.00;;;;;;5055051;28;20047;-74
2023/10/20 03:23:16;;;;;;;1.55;1.25;;;15.50;70.10;;;;;;5058079;28;20109;-75
2023/10/20 03:25:43;;;;;;;0.82;0.82;;;15.50;70.20;;;;;;5061342;28;20056;-74
2023/10/20 03:28:09;;;;;;;0.90;0.90;;;15.50;70.10;;;;;;5065257;28;20113;-75
2023/10/20 03:30:39;;;;;;;2.25;1.70;;;15.50;70.20;;;;;;5054799;28;20025;-76
2023/10/20 03:33:06;;;;;;;0.80;0.80;;;15.50;70.20;;;;;;5046429;28;20021;-75
2023/10/20 03:35:31;;;;;;;0.73;0.73;;;15.50;70.30;;;;;;5062767;28;20025;-75
2023/10/20 03:37:58;;;;;;;0.70;0.70;;;15.50;70.30;;;;;;5045889;28;20408;-75
2023/10/20 03:40:30;;;;;;;0.88;0.88;;;15.50;70.20;;;;;;5061690;28;20119;-75
2023/10/20 03:42:57;;;;;;;0.80;0.80;;;15.50;70.20;;;;;;5052167;28;20032;-75
2023/10/20 03:45:24;;;;;;;1.88;1.77;;;15.50;70.30;;;;;;5052112;28;20486;-75
2023/10/20 03:47:50;;;;;;;0.70;0.70;;;15.50;70.30;;;;;;5051164;28;20032;-75
2023/10/20 03:50:16;;;;;;;0.93;0.93;;;15.40;70.20;;;;;;5065991;28;20025;-76
2023/10/20 03:52:47;;;;;;;1.05;1.05;;;15.40;70.30;;;;;;5041244;28;20025;-76
2023/10/20 03:55:16;;;;;;;;;;;15.40;70.20;;;;;;5057568;28;20509;-76
2023/10/20 03:57:42;;;;;;;1.00;1.00;;;15.30;70.10;;;;;;5035904;28;19912;-77
2023/10/20 04:00:35;;;;;;;1.80;1.70;;;15.30;70.20;;;;;;5044561;28;20044;-79
2023/10/20 04:03:01;;;;;;;0.82;0.82;;;15.20;70.10;;;;;;5040548;28;20112;-79
2023/10/20 04:05:26;;;;;;;1.45;1.35;;;15.20;70.30;;;;;;5052746;28;20113;-80
2023/10/20 04:07:52;;;;;;;1.73;1.60;;;15.10;70.30;;;;;;5060251;28;20047;-80
2023/10/20 04:10:20;;;;;;;8.48;1.85;;;15.10;70.30;;;;;;5056299;28;20031;-80
2023/10/20 04:12:47;;;;;;;1.60;1.50;;;15.00;70.30;;;;;;5055148;28;20056;-79
2023/10/20 04:15:19;;;;;;;1.15;1.08;;;15.00;70.40;;;;;;5057147;28;20021;-80
2023/10/20 04:17:51;;;;;;;1.17;1.10;;;14.90;70.40;;;;;;5057217;28;20025;-80
2023/10/20 04:20:21;;;;;;;1.52;1.33;;;14.90;70.40;;;;;;5032398;28;20033;-78
2023/10/20 04:22:50;;;;;;;0.70;0.70;;;14.90;70.50;;;;;;5056292;28;20528;-80
2023/10/20 04:25:20;;;;;;;1.73;1.63;;;14.90;70.60;;;;;;5065004;28;20029;-81
2023/10/20 04:27:50;;;;;;;0.60;0.60;;;14.80;70.50;;;;;;5059584;28;20047;-77
2023/10/20 04:54:45;;;;;;;0.93;0.93;;;14.70;70.80;;;;;;5033803;28;20046;-78
2023/10/20 04:59:59;;;;;;;1.35;1.25;;;14.70;70.60;;;;;;5030235;28;20042;-77
2023/10/20 05:02:39;;;;;;;1.08;1.08;;;14.70;70.60;;;;;;5045377;28;20064;-77
2023/10/20 05:05:26;;;;;;;1.50;1.00;;;14.70;70.50;;;;;;5034501;28;20029;-77
2023/10/20 05:07:58;;;;;;;1.60;1.50;;;14.70;70.60;;;;;;5039341;28;20026;-79
2023/10/20 05:10:24;;;;;;;0.57;0.57;;;14.60;70.50;;;;;;5036000;28;20053;-79
2023/10/20 05:12:50;;;;;;;0.70;0.70;;;14.60;70.40;;;;;;5056417;28;20105;-78
2023/10/20 05:15:17;;;;;;;0.77;0.77;;;14.50;70.50;;;;;;5039652;28;20028;-78
2023/10/20 05:17:44;;;;;;;1.10;1.10;;;14.50;70.40;;;;;;5059303;28;20032;-78
2023/10/20 05:20:12;;;;;;;0.85;0.82;;;14.40;70.50;;;;;;5058021;28;20396;-78
2023/10/20 05:22:39;;;;;;;0.82;0.82;;;14.40;70.60;;;;;;5056044;28;20032;-77
2023/10/20 05:25:06;;;;;;;1.25;1.23;;;14.30;70.60;;;;;;5068543;28;20025;-77
2023/10/20 05:27:32;;;;;;;0.50;0.50;;;14.30;70.70;;;;;;5049356;28;20025;-77
2023/10/20 05:29:57;;;;;;;1.35;1.25;;;14.30;70.70;;;;;;5048912;28;20484;-78
2023/10/20 05:32:23;;;;;;;0.60;0.60;;;14.30;70.70;;;;;;5048002;28;20027;-79
2023/10/20 05:34:53;;;;;;;0.93;0.93;;;14.30;70.70;;;;;;5035780;28;20135;-79
2023/10/20 05:37:21;;;;;;;0.40;0.40;;;14.30;70.90;;;;;;5048857;28;20527;-78
2023/10/20 05:39:47;;;;;;;0.95;0.95;;;14.30;70.70;;;;;;5056630;28;20040;-77
2023/10/20 05:42:12;;;;;;;2.20;1.13;;;14.30;70.80;;;;;;5057438;28;20423;-70
2023/10/20 05:44:47;;;;;;;0.85;0.85;;;14.20;70.80;;;;;;5069888;28;20033;-70
2023/10/20 05:47:13;;;;;;;0.90;0.70;;;14.20;70.90;;;;;;5043606;28;20029;-71
2023/10/20 05:49:39;;;;;;;1.25;1.15;;;14.20;70.70;;;;;;5058325;28;20043;-71
2023/10/20 05:52:06;;;;;;;0.95;0.95;;;14.10;70.80;;;;;;5059431;28;20350;-70
2023/10/20 05:54:32;;;;;;;0.50;0.50;;;14.10;70.90;;;;;;5054617;28;20507;-78
2023/10/20 05:56:57;;;;;;;0.95;0.95;;;14.10;70.70;;;;;;5068843;28;20016;-78
2023/10/20 05:59:23;;;;;;;0.50;0.50;;;14.00;70.80;;;;;;5065131;28;20030;-77
2023/10/20 06:01:49;;;;;;;1.02;1.02;;;14.10;70.80;;;;;;5042695;28;20037;-77
2023/10/20 06:04:14;;;;;;;0.82;0.82;;;14.00;70.90;;;;;;5047406;28;20029;-77
2023/10/20 06:06:40;;;;;;;0.80;0.80;;;14.00;70.80;;;;;;5063160;28;20029;-78
2023/10/20 06:09:09;;;;;;;1.25;1.17;;;14.00;70.90;;;;;;5068375;28;20028;-77
2023/10/20 06:11:38;;;;;;;1.55;1.45;;;14.00;70.90;;;;;;5063744;28;20024;-78
2023/10/20 06:14:04;;;;;;;0.40;0.40;;;14.00;70.90;;;;;;5060966;28;20028;-75
2023/10/20 06:16:32;;;;;;;0.50;0.50;;;14.00;71.00;;;;;;5037913;28;20029;-78
2023/10/20 06:18:57;;;;;;;0.50;0.50;;;14.00;71.00;;;;;;5068518;28;20021;-78
2023/10/20 06:21:23;;;;;;;0.98;0.98;;;14.00;70.90;;;;;;5045028;28;20039;-76
2023/10/20 06:23:49;;;;;;;0.52;0.52;;;14.00;70.90;;;;;;5063936;28;20490;-76
2023/10/20 06:26:15;;;;;;;0.85;0.85;;;14.00;70.90;;;;;;5056123;28;20075;-77
2023/10/20 06:28:41;;;;;;;0.50;0.50;;;14.00;71.00;;;;;;5068415;28;20042;-77
2023/10/20 06:33:59;;;;;;;0.50;0.50;;;14.00;71.10;;;;;;5051816;28;20036;-77
2023/10/20 06:36:26;;;;;;;0.40;0.40;;;13.90;71.10;;;;;;5054264;28;20500;-77
2023/10/20 06:38:51;;;;;;;0.60;0.60;;;13.90;71.20;;;;;;5046131;28;20478;-77
2023/10/20 06:41:17;;;;;;;0.50;0.50;;;13.90;71.10;;;;;;5043617;28;20025;-74
2023/10/20 06:43:46;;;;;;;0.40;0.40;;;13.90;71.00;;;;;;5053116;28;20033;-76
2023/10/20 06:46:12;;;;;;;0.88;0.88;;;13.90;71.00;;;;;;5057505;28;20139;-76
2023/10/20 06:48:38;;;;;;;0.50;0.50;;;13.90;71.00;;;;;;5054953;28;20469;-77
2023/10/20 06:51:03;;;;;;;0.55;0.55;;;13.90;71.10;;;;;;5066830;28;20032;-69
2023/10/20 06:53:29;;;;;;;0.65;0.65;;;13.90;71.20;;;;;;5054051;28;20385;-68
2023/10/20 06:55:56;;;;;;;0.80;0.80;;;14.00;71.10;;;;;;5062562;28;20027;-68
2023/10/20 06:58:21;;;;;;;0.60;0.60;;;14.00;71.00;;;;;;5067399;28;20589;-68
2023/10/20 07:00:47;;;;;;;0.50;0.50;;;13.90;71.10;;;;;;5041911;28;20064;-68
2023/10/20 07:03:13;;;;;;;0.63;0.63;;;13.90;71.10;;;;;;5057639;28;20121;-70
2023/10/20 07:05:40;;;;;;;0.63;0.63;;;13.90;71.10;;;;;;5049575;28;20037;-69
2023/10/20 07:08:06;;;;;;;0.43;0.43;;;14.00;71.10;;;;;;5050520;28;20079;-69
2023/10/20 07:10:37;;;;;;;0.40;0.40;;;14.00;70.90;;;;;;5061263;28;20110;-68
2023/10/20 07:13:06;;;;;;;0.73;0.73;;;14.00;71.00;;;;;;5047102;28;20033;-69
2023/10/20 07:15:36;;;;;;;0.70;0.70;;;14.00;71.00;;;;;;5050472;28;20628;-68
2023/10/20 07:18:03;;;;;;;0.40;0.40;;;14.00;70.90;;;;;;5064500;28;20063;-68
2023/10/20 07:20:30;;;;;;;0.60;0.60;;;13.90;70.90;;;;;;5050290;28;20116;-68
2023/10/20 07:22:56;;;;;;;0.50;0.50;;;13.90;70.80;;;;;;5057548;28;20461;-68
2023/10/20 07:25:22;;;;;;;0.40;0.40;;;13.90;71.00;;;;;;5063837;28;20036;-69
2023/10/20 07:27:48;;;;;;;0.40;0.40;;;13.90;71.00;;;;;;5048768;28;20091;-68
2023/10/20 07:30:16;;;;;;;0.50;0.50;;;13.90;70.70;;;;;;5058842;28;20013;-68
2023/10/20 07:32:42;;;;;;;1.15;1.13;;;13.80;70.60;;;;;;5052294;28;20029;-69
2023/10/20 07:35:08;;;;;;;0.47;0.47;;;13.80;70.70;;;;;;5065493;28;20464;-69
2023/10/20 07:37:34;;;;;;;0.50;0.50;;;13.80;70.70;;;;;;5049304;28;20030;-69
2023/10/20 07:39:59;;;;;;;0.65;0.65;;;13.80;70.70;;;;;;5051100;28;20473;-70
2023/10/20 07:42:25;;;;;;;0.50;0.50;;;13.70;70.70;;;;;;5049723;28;20039;-69
2023/10/20 07:44:50;;;;;;;0.50;0.50;;;13.70;70.70;;;;;;5067452;28;20029;-70
2023/10/20 07:47:16;;;;;;;0.60;0.60;;;13.70;70.60;;;;;;5048884;28;20502;-70
2023/10/20 07:49:41;;;;;;;0.65;0.65;;;13.70;70.60;;;;;;5057579;28;20043;-70
2023/10/20 07:52:08;;;;;;;0.40;0.40;;;13.60;70.70;;;;;;5053203;28;20043;-70
2023/10/20 07:54:33;;;;;;;0.50;0.50;;;13.60;70.80;;;;;;5058664;28;20028;-70
2023/10/20 07:56:59;;;;;;;0.50;0.50;;;13.60;70.70;;;;;;5058565;28;20029;-69
2023/10/20 07:59:25;;;;;;;0.50;0.50;;;13.50;70.70;;;;;;5058737;28;20045;-69
2023/10/20 08:01:50;;;;;;;0.50;0.50;;;13.50;70.70;;;;;;5045041;28;20454;-78
2023/10/20 08:04:16;;;;;;;0.55;0.55;;;13.50;70.90;;;;;;5054319;28;20042;-77
2023/10/20 08:06:42;;;;;;;0.47;0.47;;;13.50;70.90;;;;;;5060976;28;20039;-77
2023/10/20 08:09:12;;;;;;;0.65;0.65;;;13.50;70.80;;;;;;5066391;28;20049;-78
2023/10/20 08:11:39;;;;;;;0.50;0.50;;;13.50;70.90;;;;;;5055472;28;20159;-79
2023/10/20 08:14:05;;;;;;;1.10;0.77;;;13.50;70.90;;;;;;5060502;28;20033;-79
2023/10/20 08:16:31;;;;;;;0.50;0.50;;;13.50;70.90;;;;;;5064253;28;20021;-78
2023/10/20 08:18:56;;;;;;;0.40;0.40;;;13.50;70.80;;;;;;5067680;28;20427;-79
2023/10/20 08:21:29;;;;;;;0.80;0.80;;;13.50;70.70;;;;;;5055667;28;20415;-80
2023/10/20 08:23:58;;;;;;;0.57;0.57;;;13.50;70.60;;;;;;5065439;28;20043;-79
2023/10/20 08:26:24;;;;;;;0.50;0.50;;;13.40;70.60;;;;;;5066647;28;20017;-79
2023/10/20 08:28:50;;;;;;;0.50;0.50;;;13.30;70.60;;;;;;5057768;28;20032;-76
2023/10/20 08:31:17;;;;;;;0.40;0.40;;;13.30;70.60;;;;;;5051611;28;20095;-79
2023/10/20 08:33:43;;;;;;;0.43;0.43;;;13.30;70.70;;;;;;5050333;28;20029;-79
2023/10/20 08:36:14;;;;;;;0.40;0.40;;;13.30;70.60;;;;;;5057607;28;20059;-80
2023/10/20 08:38:41;;;;;;;;;;;13.30;70.70;;;;;;5038778;28;20036;-81
2023/10/20 08:41:11;;;;;;;0.60;0.60;;;13.30;70.80;;;;;;5064571;28;19910;-78
2023/10/20 08:43:39;;;;;;;0.55;0.55;;;13.30;70.90;;;;;;5049448;28;20037;-75
2023/10/20 08:46:05;;;;;;;0.40;0.40;;;13.30;70.80;;;;;;5063247;28;20032;-79
2023/10/20 08:48:31;;;;;;;0.50;0.50;;;13.30;71.00;;;;;;5073197;28;20037;-78
2023/10/20 08:50:59;;;;;;;0.50;0.50;;;13.30;71.00;;;;;;5047900;28;20040;-78
2023/10/20 08:53:26;;;;;;;0.40;0.40;;;13.30;71.00;;;;;;5067765;28;20036;-79
2023/10/20 08:55:52;;;;;;;0.43;0.43;;;13.20;71.00;;;;;;5069183;28;20044;-76
2023/10/20 08:58:17;;;;;;;0.50;0.50;;;13.30;71.00;;;;;;5073111;28;20045;-77
2023/10/20 09:00:43;;;;;;;0.50;0.50;;;13.30;70.90;;;;;;5063259;28;20497;-78
2023/10/20 09:03:10;;;;;;;0.40;0.40;;;13.20;70.90;;;;;;5067021;28;20392;-78
2023/10/20 09:05:35;;;;;;;0.55;0.55;;;13.20;70.90;;;;;;5073070;28;20032;-76
2023/10/20 09:08:01;;;;;;;0.40;0.40;;;13.20;70.90;;;;;;5071740;28;20037;-78
2023/10/20 09:10:27;;;;;;;0.70;0.70;;;13.20;71.00;;;;;;5061245;28;20028;-71
2023/10/20 09:12:52;;;;;;;0.47;0.47;;;13.20;71.00;;;;;;5054450;28;20032;-72
2023/10/20 09:15:18;;;;;;;0.40;0.40;;;13.20;71.00;;;;;;5062480;28;20038;-71
2023/10/20 09:17:51;;;;;;;0.47;0.47;;;13.20;70.90;;;;;;5059392;28;20150;-71
2023/10/20 09:20:16;;;;;;;0.40;0.40;;;13.20;71.00;;;;;;5058864;28;20048;-72
2023/10/20 09:22:42;;;;;;;0.50;0.50;;;13.20;71.00;;;;;;5054663;28;20083;-71
2023/10/20 09:25:10;;;;;;;0.47;0.47;;;13.20;70.90;;;;;;5068135;28;20564;-72
2023/10/20 09:27:37;;;;;;;0.40;0.40;;;13.20;71.00;;;;;;5058849;28;20063;-73
2023/10/20 09:30:08;;;;;;;0.40;0.40;;;13.20;71.10;;;;;;5060111;28;20052;-71
2023/10/20 09:32:35;;;;;;;0.50;0.50;;;13.20;71.10;;;;;;5051815;28;20376;-71
2023/10/20 09:35:04;;;;;;;0.40;0.40;;;13.20;71.30;;;;;;5068850;28;20024;-71
2023/10/20 09:37:30;;;;;;;0.45;0.45;;;13.20;71.10;;;;;;5052162;28;20034;-72
2023/10/20 09:40:08;;;;;;;0.45;0.45;;;13.20;71.10;;;;;;5059314;28;20040;-71
2023/10/20 09:43:19;;;;;;;0.50;0.50;;;13.20;71.30;;;;;;5056651;28;20565;-71
2023/10/20 09:45:47;;;;;;;;;;;13.30;71.50;;;;;;5063038;28;20035;-71
2023/10/20 09:48:19;;;;;;;1.70;1.20;;;13.30;71.20;;;;;;5067229;28;19939;-71
2023/10/20 09:50:49;;;;;;;0.50;0.50;;;13.30;71.50;;;;;;5053601;28;20033;-71
2023/10/20 09:53:15;;;;;;;0.50;0.50;;;13.30;71.50;;;;;;5057823;28;20524;-71
2023/10/20 09:55:46;;;;;;;0.40;0.40;;;13.40;71.60;;;;;;5060688;28;20036;-71
2023/10/20 09:58:13;;;;;;;0.50;0.50;;;13.40;71.50;;;;;;5067264;28;20025;-71
2023/10/20 10:00:42;;;;;;;0.80;0.80;;;13.50;71.40;;;;;;5056250;28;20063;-72
2023/10/20 10:03:08;;;;;;;0.50;0.50;;;13.50;71.40;;;;;;5046521;28;20077;-71
2023/10/20 10:05:36;;;;;;;0.40;0.40;;;13.50;71.30;;;;;;5065203;28;20036;-70
2023/10/20 10:08:09;;;;;;;1.17;0.95;;;13.50;71.30;;;;;;5067184;28;20047;-71
2023/10/20 10:10:35;;;;;;;0.60;0.60;;;13.50;71.10;;;;;;5051508;28;20024;-71
2023/10/20 10:13:05;;;;;;;0.50;0.50;;;13.60;71.30;;;;;;5053732;28;20028;-71
2023/10/20 10:15:38;;;;;;;0.50;0.50;;;13.60;71.40;;;;;;5061653;28;20031;-70
2023/10/20 10:18:12;;;;;;;0.40;0.40;;;13.60;71.60;;;;;;5062466;28;20083;-71
2023/10/20 10:20:47;;;;;;;0.60;0.60;;;13.70;71.40;;;;;;5056036;28;20033;-78
2023/10/20 10:23:14;;;;;;;0.50;0.50;;;13.70;71.50;;;;;;5057733;28;20182;-79
2023/10/20 10:25:47;;;;;;;0.50;0.50;;;13.70;71.30;;;;;;5065291;28;20032;-77
2023/10/20 10:28:18;;;;;;;0.63;0.63;;;13.70;71.20;;;;;;5070266;28;20028;-78
2023/10/20 10:30:45;;;;;;;0.50;0.50;;;13.60;71.00;;;;;;5069297;28;20398;-78
2023/10/20 10:33:11;;;;;;;0.50;0.50;;;13.60;71.00;;;;;;5061719;28;20017;-77
2023/10/20 10:35:38;;;;;;;0.40;0.40;;;13.60;71.10;;;;;;5070256;28;20543;-78
2023/10/20 10:38:41;;;;;;;0.43;0.43;;;13.60;71.30;;;;;;5052118;28;20511;-78
2023/10/20 10:41:06;;;;;;;0.40;0.40;;;13.60;71.50;;;;;;5042423;28;20046;-78
2023/10/20 10:43:32;;;;;;;0.50;0.50;;;13.60;71.20;;;;;;5067162;28;20060;-78
2023/10/20 10:45:58;;;;;;;0.50;0.50;;;13.60;71.30;;;;;;5062272;28;20036;-78
2023/10/20 10:48:25;;;;;;;0.50;0.50;;;13.60;71.50;;;;;;5072246;28;20055;-77
2023/10/20 10:50:51;;;;;;;0.50;0.50;;;13.60;71.30;;;;;;5059001;28;20112;-76
2023/10/20 10:53:17;;;;;;;0.70;0.70;;;13.60;71.30;;;;;;5063120;28;20060;-78
2023/10/20 10:55:43;;;;;;;0.43;0.43;;;13.60;71.30;;;;;;5067567;28;20032;-77
2023/10/20 10:58:12;;;;;;;0.40;0.40;;;13.60;71.40;;;;;;5053514;28;20132;-78
2023/10/20 11:00:38;;;;;;;0.40;0.40;;;13.60;71.40;;;;;;5073770;28;20031;-79
2023/10/20 11:03:06;;;;;;;0.47;0.47;;;13.60;71.40;;;;;;5062789;28;20044;-78
2023/10/20 11:05:33;;;;;;;0.50;0.50;;;13.60;71.50;;;;;;5055847;28;20269;-78
2023/10/20 11:08:16;;;;;;;0.40;0.40;;;13.70;71.40;;;;;;5053418;28;20029;-77
2023/10/20 11:10:45;;;;;;;0.70;0.70;;;13.70;71.50;;;;;;5068848;28;20117;-77
2023/10/20 11:13:13;;;;;;;0.43;0.43;;;13.80;71.70;;;;;;5057561;28;20134;-77
2023/10/20 11:15:40;;;;;;;0.40;0.40;;;13.80;71.50;;;;;;5060768;28;20075;-76
2023/10/20 11:18:07;;;;;;;0.50;0.50;;;13.80;71.40;;;;;;5060210;28;20040;-76
2023/10/20 11:20:37;;;;;;;0.47;0.47;;;13.80;71.40;;;;;;5055031;28;20508;-78
2023/10/20 11:23:04;;;;;;;0.40;0.40;;;13.80;71.50;;;;;;5061813;28;20056;-78
2023/10/20 11:25:30;;;;;;;0.52;0.52;;;13.80;71.30;;;;;;5057615;28;20028;-78
2023/10/20 11:27:56;;;;;;;0.40;0.40;;;13.80;71.40;;;;;;5067846;28;20060;-79
2023/10/20 11:30:27;;;;;;;0.40;0.40;;;13.80;71.50;;;;;;5055416;28;20485;-79
2023/10/20 11:32:55;;;;;;;0.40;0.40;;;13.80;71.50;;;;;;5050721;28;20020;-80
2023/10/20 11:35:24;;;;;;;0.40;0.40;;;13.80;71.30;;;;;;5041180;28;20500;-78
2023/10/20 11:37:51;;;;;;;0.50;0.50;;;13.80;71.30;;;;;;5048525;28;20051;-77
2023/10/20 11:40:17;;;;;;;0.75;0.75;;;13.80;71.00;;;;;;5062465;28;20489;-80
2023/10/20 11:42:43;;;;;;;0.45;0.45;;;13.80;70.90;;;;;;5052821;28;20193;-80
2023/10/20 11:45:10;;;;;;;0.40;0.40;;;13.80;71.00;;;;;;5044115;28;20145;-78
2023/10/20 11:47:36;;;;;;;0.50;0.50;;;13.80;71.10;;;;;;5059994;28;20048;-79
2023/10/20 11:50:02;;;;;;;1.02;0.65;;;13.80;71.10;;;;;;5067357;28;20392;-79
2023/10/20 11:52:29;;;;;;;0.40;0.40;;;13.80;71.10;;;;;;5055736;28;20048;-77
2023/10/20 11:54:54;;;;;;;0.47;0.47;;;13.80;71.20;;;;;;5060213;28;20025;-78
2023/10/20 11:57:21;;;;;;;0.40;0.40;;;13.70;71.10;;;;;;5069184;28;20067;-79
2023/10/20 11:59:46;;;;;;;0.40;0.40;;;13.70;70.90;;;;;;5056595;28;20036;-78
2023/10/20 12:02:12;;;;;;;0.40;0.40;;;13.70;71.00;;;;;;5053286;28;20029;-79
2023/10/20 12:04:37;;;;;;;0.40;0.40;;;13.70;71.10;;;;;;5052690;28;20447;-78
2023/10/20 12:07:03;;;;;;;0.60;0.60;;;13.70;71.00;;;;;;5069469;28;20021;-78
2023/10/20 12:09:29;;;;;;;0.50;0.50;;;13.70;71.10;;;;;;5054345;28;20040;-78
2023/10/20 12:11:55;;;;;;;0.40;0.40;;;13.60;71.30;;;;;;5056518;28;20388;-79
2023/10/20 12:14:20;;;;;;;1.30;1.20;;;13.60;71.20;;;;;;5043487;28;20044;-79
2023/10/20 12:16:46;;;;;;;0.50;0.50;;;13.60;71.30;;;;;;5063350;28;20031;-71
2023/10/20 12:19:12;;;;;;;0.55;0.55;;;13.60;71.30;;;;;;5069886;28;20464;-71
2023/10/20 12:21:38;;;;;;;0.50;0.50;;;13.60;71.20;;;;;;5058244;28;20029;-71
2023/10/20 12:24:04;;;;;;;0.45;0.45;;;13.60;71.20;;;;;;5046506;28;20024;-71
2023/10/20 12:26:30;;;;;;;0.50;0.50;;;13.70;71.30;;;;;;5057482;28;20034;-72
2023/10/20 12:28:56;;;;;;;0.40;0.40;;;13.70;71.30;;;;;;5069711;28;20398;-71
2023/10/20 12:31:24;;;;;;;0.45;0.45;;;13.70;71.40;;;;;;5055723;28;20071;-71
2023/10/20 12:33:50;;;;;;;0.50;0.50;;;13.70;71.40;;;;;;5045585;28;20111;-71
2023/10/20 12:36:18;;;;;;;0.40;0.40;;;13.70;71.30;;;;;;5062266;28;20112;-70
2023/10/20 12:38:44;;;;;;;0.45;0.45;;;13.70;71.30;;;;;;5040170;28;20133;-70
2023/10/20 12:41:14;;;;;;;0.50;0.50;;;13.70;71.20;;;;;;5039719;28;20115;-79
2023/10/20 12:43:42;;;;;;;0.50;0.50;;;13.70;71.10;;;;;;5044965;28;20037;-77
2023/10/20 12:46:12;;;;;;;0.55;0.55;;;13.70;71.20;;;;;;5054305;28;20323;-74
2023/10/20 12:48:38;;;;;;;0.50;0.50;;;13.70;71.20;;;;;;5071802;28;20047;-79
2023/10/20 12:51:12;;;;;;;0.40;0.40;;;13.60;71.10;;;;;;5061133;28;20024;-78
2023/10/20 12:53:38;;;;;;;0.40;0.40;;;13.60;71.20;;;;;;5049291;28;20057;-76
2023/10/20 12:56:04;;;;;;;0.57;0.57;;;13.60;71.10;;;;;;5048925;28;20091;-75
2023/10/20 12:58:29;;;;;;;0.50;0.50;;;13.60;71.10;;;;;;5058860;28;20021;-73
2023/10/20 13:00:55;;;;;;;0.40;0.40;;;13.60;71.00;;;;;;5055186;28;20055;-74
2023/10/20 13:03:20;;;;;;;0.40;0.40;;;13.50;71.00;;;;;;5035643;28;20433;-75
2023/10/20 13:05:46;;;;;;;0.45;0.45;;;13.60;70.90;;;;;;5059824;28;20037;-75
2023/10/20 13:08:15;;;;;;;0.50;0.50;;;13.50;70.90;;;;;;5066820;28;20094;-74
2023/10/20 13:10:41;;;;;;;0.63;0.63;;;13.50;70.90;;;;;;5070313;28;20032;-76
2023/10/20 13:13:07;;;;;;;0.50;0.50;;;13.50;70.90;;;;;;5050969;28;20102;-76
2023/10/20 13:15:33;;;;;;;0.50;0.50;;;13.50;70.80;;;;;;5054369;28;20032;-74
2023/10/20 13:17:58;;;;;;;0.40;0.40;;;13.50;70.90;;;;;;5070068;28;20543;-74